sensor_id;sensor_type;location;lat;lon;timestamp;P1;durP1;ratioP1;P2;durP2;ratioP2
24090;SDS011;12272;52.426;17.100;2023-05-31T00:02:57;3.90;;;1.73;;
24090;SDS011;12272;52.426;17.100;2023-05-31T00:08:00;3.30;;;1.92;;
24090;SDS011;12272;52.426;17.100;2023-05-31T00:13:02;5.55;;;2.30;;
24090;SDS011;12272;52.426;17.100;2023-05-31T00:18:05;9.98;;;2.05;;
24090;SDS011;12272;52.426;17.100;2023-05-31T00:23:07;4.93;;;2.67;;
24090;SDS011;12272;52.426;17.100;2023-05-31T00:28:10;3.83;;;1.80;;
24090;SDS011;12272;52.426;17.100;2023-05-31T00:33:13;4.97;;;1.95;;
24090;SDS011;12272;52.426;17.100;2023-05-31T00:38:16;3.63;;;1.65;;
24090;SDS011;12272;52.426;17.100;2023-05-31T00:43:19;6.50;;;1.73;;
24090;SDS011;12272;52.426;17.100;2023-05-31T00:48:24;3.08;;;1.58;;
24090;SDS011;12272;52.426;17.100;2023-05-31T00:53:27;2.20;;;1.63;;
24090;SDS011;12272;52.426;17.100;2023-05-31T00:58:31;4.93;;;2.85;;
24090;SDS011;12272;52.426;17.100;2023-05-31T01:03:37;4.78;;;2.10;;
24090;SDS011;12272;52.426;17.100;2023-05-31T01:08:41;1.67;;;1.30;;
24090;SDS011;12272;52.426;17.100;2023-05-31T01:19:18;4.95;;;1.95;;
24090;SDS011;12272;52.426;17.100;2023-05-31T01:30:24;3.35;;;2.22;;
24090;SDS011;12272;52.426;17.100;2023-05-31T01:35:31;6.40;;;2.83;;
24090;SDS011;12272;52.426;17.100;2023-05-31T01:40:34;7.53;;;2.30;;
24090;SDS011;12272;52.426;17.100;2023-05-31T01:45:37;7.50;;;2.40;;
24090;SDS011;12272;52.426;17.100;2023-05-31T01:50:41;6.40;;;2.38;;
24090;SDS011;12272;52.426;17.100;2023-05-31T01:55:46;4.38;;;1.88;;
24090;SDS011;12272;52.426;17.100;2023-05-31T02:00:49;3.25;;;2.10;;
24090;SDS011;12272;52.426;17.100;2023-05-31T02:11:02;3.22;;;1.67;;
24090;SDS011;12272;52.426;17.100;2023-05-31T02:16:05;5.95;;;1.92;;
24090;SDS011;12272;52.426;17.100;2023-05-31T02:21:08;7.03;;;2.40;;
24090;SDS011;12272;52.426;17.100;2023-05-31T02:26:10;3.83;;;2.25;;
24090;SDS011;12272;52.426;17.100;2023-05-31T02:31:13;9.43;;;2.00;;
24090;SDS011;12272;52.426;17.100;2023-05-31T02:36:15;1.90;;;1.70;;
24090;SDS011;12272;52.426;17.100;2023-05-31T02:41:18;2.47;;;1.60;;
24090;SDS011;12272;52.426;17.100;2023-05-31T02:46:21;4.65;;;3.15;;
24090;SDS011;12272;52.426;17.100;2023-05-31T02:51:23;5.57;;;2.55;;
24090;SDS011;12272;52.426;17.100;2023-05-31T02:56:38;5.63;;;2.33;;
24090;SDS011;12272;52.426;17.100;2023-05-31T03:01:52;4.75;;;2.47;;
24090;SDS011;12272;52.426;17.100;2023-05-31T03:07:22;2.17;;;1.40;;
24090;SDS011;12272;52.426;17.100;2023-05-31T03:12:24;2.60;;;1.52;;
24090;SDS011;12272;52.426;17.100;2023-05-31T03:17:27;3.22;;;2.20;;
24090;SDS011;12272;52.426;17.100;2023-05-31T03:22:30;7.15;;;2.35;;
24090;SDS011;12272;52.426;17.100;2023-05-31T03:27:33;5.82;;;2.25;;
24090;SDS011;12272;52.426;17.100;2023-05-31T03:32:36;3.55;;;2.05;;
24090;SDS011;12272;52.426;17.100;2023-05-31T03:37:39;4.28;;;1.95;;
24090;SDS011;12272;52.426;17.100;2023-05-31T03:42:45;5.30;;;2.38;;
24090;SDS011;12272;52.426;17.100;2023-05-31T03:47:48;3.53;;;1.67;;
24090;SDS011;12272;52.426;17.100;2023-05-31T03:52:51;2.65;;;1.58;;
24090;SDS011;12272;52.426;17.100;2023-05-31T03:57:53;7.95;;;3.67;;
24090;SDS011;12272;52.426;17.100;2023-05-31T04:02:56;2.10;;;1.40;;
24090;SDS011;12272;52.426;17.100;2023-05-31T04:08:08;4.10;;;2.47;;
24090;SDS011;12272;52.426;17.100;2023-05-31T04:13:11;2.90;;;2.00;;
24090;SDS011;12272;52.426;17.100;2023-05-31T04:18:14;9.90;;;1.65;;
24090;SDS011;12272;52.426;17.100;2023-05-31T04:23:17;7.22;;;2.22;;
24090;SDS011;12272;52.426;17.100;2023-05-31T04:28:19;6.07;;;3.75;;
24090;SDS011;12272;52.426;17.100;2023-05-31T04:33:23;2.72;;;2.05;;
24090;SDS011;12272;52.426;17.100;2023-05-31T04:38:27;6.78;;;2.13;;
24090;SDS011;12272;52.426;17.100;2023-05-31T04:43:32;6.63;;;1.80;;
24090;SDS011;12272;52.426;17.100;2023-05-31T04:48:35;6.57;;;2.88;;
24090;SDS011;12272;52.426;17.100;2023-05-31T04:53:38;6.20;;;2.50;;
24090;SDS011;12272;52.426;17.100;2023-05-31T04:58:42;7.25;;;2.55;;
24090;SDS011;12272;52.426;17.100;2023-05-31T05:03:45;18.95;;;3.95;;
24090;SDS011;12272;52.426;17.100;2023-05-31T05:08:48;5.13;;;2.45;;
24090;SDS011;12272;52.426;17.100;2023-05-31T05:13:51;1.88;;;1.10;;
24090;SDS011;12272;52.426;17.100;2023-05-31T05:18:57;4.97;;;1.83;;
24090;SDS011;12272;52.426;17.100;2023-05-31T05:24:04;4.18;;;2.42;;
24090;SDS011;12272;52.426;17.100;2023-05-31T05:29:08;14.07;;;2.72;;
24090;SDS011;12272;52.426;17.100;2023-05-31T05:34:10;8.10;;;3.25;;
24090;SDS011;12272;52.426;17.100;2023-05-31T05:39:14;6.75;;;3.85;;
24090;SDS011;12272;52.426;17.100;2023-05-31T05:44:20;13.45;;;2.75;;
24090;SDS011;12272;52.426;17.100;2023-05-31T05:49:22;6.80;;;2.63;;
24090;SDS011;12272;52.426;17.100;2023-05-31T05:54:25;8.38;;;2.85;;
24090;SDS011;12272;52.426;17.100;2023-05-31T05:59:28;3.67;;;2.67;;
24090;SDS011;12272;52.426;17.100;2023-05-31T06:04:39;6.40;;;1.98;;
24090;SDS011;12272;52.426;17.100;2023-05-31T06:09:41;6.53;;;2.38;;
24090;SDS011;12272;52.426;17.100;2023-05-31T06:14:45;5.25;;;2.80;;
24090;SDS011;12272;52.426;17.100;2023-05-31T06:19:47;8.93;;;2.70;;
24090;SDS011;12272;52.426;17.100;2023-05-31T06:24:50;6.15;;;2.13;;
24090;SDS011;12272;52.426;17.100;2023-05-31T06:29:54;4.97;;;2.33;;
24090;SDS011;12272;52.426;17.100;2023-05-31T06:35:05;5.13;;;1.98;;
24090;SDS011;12272;52.426;17.100;2023-05-31T06:40:08;5.82;;;1.85;;
24090;SDS011;12272;52.426;17.100;2023-05-31T06:45:13;5.15;;;2.17;;
24090;SDS011;12272;52.426;17.100;2023-05-31T06:50:28;3.95;;;2.30;;
24090;SDS011;12272;52.426;17.100;2023-05-31T06:55:51;8.32;;;3.03;;
24090;SDS011;12272;52.426;17.100;2023-05-31T07:00:56;3.35;;;1.83;;
24090;SDS011;12272;52.426;17.100;2023-05-31T07:05:59;4.03;;;2.30;;
24090;SDS011;12272;52.426;17.100;2023-05-31T07:11:02;3.45;;;2.40;;
24090;SDS011;12272;52.426;17.100;2023-05-31T07:16:05;2.28;;;1.40;;
24090;SDS011;12272;52.426;17.100;2023-05-31T07:21:08;4.65;;;1.70;;
24090;SDS011;12272;52.426;17.100;2023-05-31T07:26:11;2.38;;;1.30;;
24090;SDS011;12272;52.426;17.100;2023-05-31T07:31:13;10.10;;;1.70;;
24090;SDS011;12272;52.426;17.100;2023-05-31T07:36:19;2.47;;;1.10;;
24090;SDS011;12272;52.426;17.100;2023-05-31T07:41:21;4.45;;;2.00;;
24090;SDS011;12272;52.426;17.100;2023-05-31T07:46:24;4.07;;;2.08;;
24090;SDS011;12272;52.426;17.100;2023-05-31T07:51:28;2.63;;;1.38;;
24090;SDS011;12272;52.426;17.100;2023-05-31T07:56:31;2.88;;;1.50;;
24090;SDS011;12272;52.426;17.100;2023-05-31T08:01:33;6.15;;;2.33;;
24090;SDS011;12272;52.426;17.100;2023-05-31T08:06:36;5.47;;;1.73;;
24090;SDS011;12272;52.426;17.100;2023-05-31T08:11:39;2.75;;;1.52;;
24090;SDS011;12272;52.426;17.100;2023-05-31T08:16:41;13.70;;;2.00;;
24090;SDS011;12272;52.426;17.100;2023-05-31T08:21:44;2.70;;;1.15;;
24090;SDS011;12272;52.426;17.100;2023-05-31T08:26:48;10.10;;;1.52;;
24090;SDS011;12272;52.426;17.100;2023-05-31T08:31:52;3.45;;;1.45;;
24090;SDS011;12272;52.426;17.100;2023-05-31T08:36:54;1.73;;;1.23;;
24090;SDS011;12272;52.426;17.100;2023-05-31T08:42:04;8.88;;;2.03;;
24090;SDS011;12272;52.426;17.100;2023-05-31T08:47:14;12.38;;;1.75;;
24090;SDS011;12272;52.426;17.100;2023-05-31T08:52:24;13.00;;;3.35;;
24090;SDS011;12272;52.426;17.100;2023-05-31T08:57:28;21.30;;;3.75;;
24090;SDS011;12272;52.426;17.100;2023-05-31T09:02:33;18.13;;;2.45;;
24090;SDS011;12272;52.426;17.100;2023-05-31T09:07:37;24.42;;;4.35;;
24090;SDS011;12272;52.426;17.100;2023-05-31T09:12:41;2.97;;;1.30;;
24090;SDS011;12272;52.426;17.100;2023-05-31T09:17:45;10.70;;;2.63;;
24090;SDS011;12272;52.426;17.100;2023-05-31T09:22:48;5.97;;;1.50;;
24090;SDS011;12272;52.426;17.100;2023-05-31T09:27:51;11.10;;;3.45;;
24090;SDS011;12272;52.426;17.100;2023-05-31T09:32:55;8.02;;;2.92;;
24090;SDS011;12272;52.426;17.100;2023-05-31T09:38:03;8.88;;;1.80;;
24090;SDS011;12272;52.426;17.100;2023-05-31T09:43:08;3.95;;;2.05;;
24090;SDS011;12272;52.426;17.100;2023-05-31T09:48:12;2.30;;;1.38;;
24090;SDS011;12272;52.426;17.100;2023-05-31T09:53:16;10.38;;;2.20;;
24090;SDS011;12272;52.426;17.100;2023-05-31T09:58:28;6.05;;;1.75;;
24090;SDS011;12272;52.426;17.100;2023-05-31T10:03:34;3.97;;;1.50;;
24090;SDS011;12272;52.426;17.100;2023-05-31T10:08:37;4.10;;;1.75;;
24090;SDS011;12272;52.426;17.100;2023-05-31T10:13:41;3.58;;;1.95;;
24090;SDS011;12272;52.426;17.100;2023-05-31T10:18:45;2.67;;;1.45;;
24090;SDS011;12272;52.426;17.100;2023-05-31T10:29:07;7.00;;;1.50;;
24090;SDS011;12272;52.426;17.100;2023-05-31T10:45:18;6.75;;;2.35;;
24090;SDS011;12272;52.426;17.100;2023-05-31T10:50:00;5.20;;;2.20;;
24090;SDS011;12272;52.426;17.100;2023-05-31T10:55:14;5.80;;;1.90;;
24090;SDS011;12272;52.426;17.100;2023-05-31T11:00:21;8.00;;;2.15;;
24090;SDS011;12272;52.426;17.100;2023-05-31T11:05:25;4.40;;;1.50;;
24090;SDS011;12272;52.426;17.100;2023-05-31T11:10:30;3.95;;;1.60;;
24090;SDS011;12272;52.426;17.100;2023-05-31T11:15:45;2.95;;;1.67;;
24090;SDS011;12272;52.426;17.100;2023-05-31T11:20:51;4.70;;;1.80;;
24090;SDS011;12272;52.426;17.100;2023-05-31T11:31:13;4.10;;;1.60;;
24090;SDS011;12272;52.426;17.100;2023-05-31T11:36:16;10.80;;;2.55;;
24090;SDS011;12272;52.426;17.100;2023-05-31T11:41:19;2.33;;;1.33;;
24090;SDS011;12272;52.426;17.100;2023-05-31T11:46:21;3.08;;;1.42;;
24090;SDS011;12272;52.426;17.100;2023-05-31T11:51:24;2.47;;;1.23;;
24090;SDS011;12272;52.426;17.100;2023-05-31T11:56:30;3.10;;;1.38;;
24090;SDS011;12272;52.426;17.100;2023-05-31T12:01:38;3.08;;;1.95;;
24090;SDS011;12272;52.426;17.100;2023-05-31T12:06:42;3.17;;;1.70;;
24090;SDS011;12272;52.426;17.100;2023-05-31T12:11:45;3.28;;;1.65;;
24090;SDS011;12272;52.426;17.100;2023-05-31T12:16:47;5.00;;;1.55;;
24090;SDS011;12272;52.426;17.100;2023-05-31T12:21:51;2.80;;;1.08;;
24090;SDS011;12272;52.426;17.100;2023-05-31T12:26:53;2.65;;;1.45;;
24090;SDS011;12272;52.426;17.100;2023-05-31T12:32:02;3.17;;;1.33;;
24090;SDS011;12272;52.426;17.100;2023-05-31T12:37:07;7.03;;;1.10;;
24090;SDS011;12272;52.426;17.100;2023-05-31T12:42:11;5.15;;;1.42;;
24090;SDS011;12272;52.426;17.100;2023-05-31T12:47:16;4.60;;;1.38;;
24090;SDS011;12272;52.426;17.100;2023-05-31T12:52:19;3.80;;;1.30;;
24090;SDS011;12272;52.426;17.100;2023-05-31T12:57:22;2.88;;;1.33;;
24090;SDS011;12272;52.426;17.100;2023-05-31T13:02:24;1.10;;;0.80;;
24090;SDS011;12272;52.426;17.100;2023-05-31T13:07:27;1.35;;;0.95;;
24090;SDS011;12272;52.426;17.100;2023-05-31T13:12:29;3.10;;;1.05;;
24090;SDS011;12272;52.426;17.100;2023-05-31T13:17:32;2.53;;;1.00;;
24090;SDS011;12272;52.426;17.100;2023-05-31T13:22:35;1.98;;;0.80;;
24090;SDS011;12272;52.426;17.100;2023-05-31T13:27:38;3.30;;;1.42;;
24090;SDS011;12272;52.426;17.100;2023-05-31T13:32:42;3.35;;;2.15;;
24090;SDS011;12272;52.426;17.100;2023-05-31T13:37:45;1.70;;;1.00;;
24090;SDS011;12272;52.426;17.100;2023-05-31T13:42:47;6.85;;;1.95;;
24090;SDS011;12272;52.426;17.100;2023-05-31T13:47:52;3.40;;;1.15;;
24090;SDS011;12272;52.426;17.100;2023-05-31T13:52:55;3.60;;;1.92;;
24090;SDS011;12272;52.426;17.100;2023-05-31T13:57:57;1.88;;;1.10;;
24090;SDS011;12272;52.426;17.100;2023-05-31T14:03:00;8.25;;;2.03;;
24090;SDS011;12272;52.426;17.100;2023-05-31T14:08:03;6.07;;;1.77;;
24090;SDS011;12272;52.426;17.100;2023-05-31T14:13:05;6.85;;;1.60;;
24090;SDS011;12272;52.426;17.100;2023-05-31T14:18:08;2.65;;;1.13;;
24090;SDS011;12272;52.426;17.100;2023-05-31T14:23:11;5.40;;;1.10;;
24090;SDS011;12272;52.426;17.100;2023-05-31T14:28:13;1.95;;;1.27;;
24090;SDS011;12272;52.426;17.100;2023-05-31T14:33:16;2.78;;;1.30;;
24090;SDS011;12272;52.426;17.100;2023-05-31T14:38:20;3.08;;;1.58;;
24090;SDS011;12272;52.426;17.100;2023-05-31T14:43:36;4.30;;;0.77;;
24090;SDS011;12272;52.426;17.100;2023-05-31T14:48:39;3.22;;;1.23;;
24090;SDS011;12272;52.426;17.100;2023-05-31T14:53:43;2.92;;;1.15;;
24090;SDS011;12272;52.426;17.100;2023-05-31T14:58:49;2.38;;;1.40;;
24090;SDS011;12272;52.426;17.100;2023-05-31T15:03:52;3.80;;;1.35;;
24090;SDS011;12272;52.426;17.100;2023-05-31T15:08:57;4.57;;;1.10;;
24090;SDS011;12272;52.426;17.100;2023-05-31T15:13:59;7.53;;;1.65;;
24090;SDS011;12272;52.426;17.100;2023-05-31T15:19:02;2.53;;;1.15;;
24090;SDS011;12272;52.426;17.100;2023-05-31T15:24:05;4.75;;;1.15;;
24090;SDS011;12272;52.426;17.100;2023-05-31T15:29:08;3.10;;;1.85;;
24090;SDS011;12272;52.426;17.100;2023-05-31T15:34:19;2.00;;;1.20;;
24090;SDS011;12272;52.426;17.100;2023-05-31T15:39:22;2.17;;;1.42;;
24090;SDS011;12272;52.426;17.100;2023-05-31T15:44:24;3.08;;;1.35;;
24090;SDS011;12272;52.426;17.100;2023-05-31T15:49:27;2.08;;;1.55;;
24090;SDS011;12272;52.426;17.100;2023-05-31T15:54:30;2.05;;;1.30;;
24090;SDS011;12272;52.426;17.100;2023-05-31T15:59:32;4.93;;;1.35;;
24090;SDS011;12272;52.426;17.100;2023-05-31T16:04:36;8.70;;;1.20;;
24090;SDS011;12272;52.426;17.100;2023-05-31T16:09:39;2.35;;;1.20;;
24090;SDS011;12272;52.426;17.100;2023-05-31T16:14:42;1.98;;;1.20;;
24090;SDS011;12272;52.426;17.100;2023-05-31T16:19:44;4.03;;;2.08;;
24090;SDS011;12272;52.426;17.100;2023-05-31T16:24:47;6.18;;;1.75;;
24090;SDS011;12272;52.426;17.100;2023-05-31T16:29:50;5.25;;;1.23;;
24090;SDS011;12272;52.426;17.100;2023-05-31T16:34:52;5.75;;;1.02;;
24090;SDS011;12272;52.426;17.100;2023-05-31T16:39:55;2.70;;;1.05;;
24090;SDS011;12272;52.426;17.100;2023-05-31T16:44:58;2.20;;;1.48;;
24090;SDS011;12272;52.426;17.100;2023-05-31T16:50:00;2.60;;;1.30;;
24090;SDS011;12272;52.426;17.100;2023-05-31T16:55:03;1.30;;;1.00;;
24090;SDS011;12272;52.426;17.100;2023-05-31T17:00:06;3.97;;;1.25;;
24090;SDS011;12272;52.426;17.100;2023-05-31T17:05:09;1.77;;;1.20;;
24090;SDS011;12272;52.426;17.100;2023-05-31T17:10:12;4.72;;;1.50;;
24090;SDS011;12272;52.426;17.100;2023-05-31T17:15:15;5.28;;;1.73;;
24090;SDS011;12272;52.426;17.100;2023-05-31T17:20:17;4.28;;;1.73;;
24090;SDS011;12272;52.426;17.100;2023-05-31T17:25:20;7.88;;;1.88;;
24090;SDS011;12272;52.426;17.100;2023-05-31T17:30:23;3.05;;;1.75;;
24090;SDS011;12272;52.426;17.100;2023-05-31T17:35:29;5.05;;;1.80;;
24090;SDS011;12272;52.426;17.100;2023-05-31T17:40:32;3.15;;;2.00;;
24090;SDS011;12272;52.426;17.100;2023-05-31T17:45:35;3.03;;;1.67;;
24090;SDS011;12272;52.426;17.100;2023-05-31T17:50:37;5.30;;;1.48;;
24090;SDS011;12272;52.426;17.100;2023-05-31T17:55:40;3.30;;;1.38;;
24090;SDS011;12272;52.426;17.100;2023-05-31T18:00:42;2.25;;;1.48;;
24090;SDS011;12272;52.426;17.100;2023-05-31T18:05:45;8.65;;;1.92;;
24090;SDS011;12272;52.426;17.100;2023-05-31T18:10:48;12.85;;;2.38;;
24090;SDS011;12272;52.426;17.100;2023-05-31T18:15:50;2.60;;;1.65;;
24090;SDS011;12272;52.426;17.100;2023-05-31T18:20:53;12.75;;;2.83;;
24090;SDS011;12272;52.426;17.100;2023-05-31T18:25:56;5.03;;;1.73;;
24090;SDS011;12272;52.426;17.100;2023-05-31T18:30:58;8.02;;;2.63;;
24090;SDS011;12272;52.426;17.100;2023-05-31T18:36:02;3.38;;;1.90;;
24090;SDS011;12272;52.426;17.100;2023-05-31T18:41:05;6.35;;;1.70;;
24090;SDS011;12272;52.426;17.100;2023-05-31T18:46:07;4.60;;;2.20;;
24090;SDS011;12272;52.426;17.100;2023-05-31T18:51:10;7.00;;;2.67;;
24090;SDS011;12272;52.426;17.100;2023-05-31T18:56:13;4.00;;;1.33;;
24090;SDS011;12272;52.426;17.100;2023-05-31T19:01:15;62.28;;;5.55;;
24090;SDS011;12272;52.426;17.100;2023-05-31T19:06:18;14.20;;;2.20;;
24090;SDS011;12272;52.426;17.100;2023-05-31T19:11:21;3.88;;;1.42;;
24090;SDS011;12272;52.426;17.100;2023-05-31T19:16:23;4.20;;;1.60;;
24090;SDS011;12272;52.426;17.100;2023-05-31T19:21:26;5.70;;;2.15;;
24090;SDS011;12272;52.426;17.100;2023-05-31T19:26:29;9.25;;;1.70;;
24090;SDS011;12272;52.426;17.100;2023-05-31T19:31:31;2.80;;;1.40;;
24090;SDS011;12272;52.426;17.100;2023-05-31T19:36:35;4.00;;;1.60;;
24090;SDS011;12272;52.426;17.100;2023-05-31T19:41:37;4.88;;;1.73;;
24090;SDS011;12272;52.426;17.100;2023-05-31T19:46:41;7.68;;;2.25;;
24090;SDS011;12272;52.426;17.100;2023-05-31T19:51:44;5.15;;;2.05;;
24090;SDS011;12272;52.426;17.100;2023-05-31T19:56:47;2.65;;;1.80;;
24090;SDS011;12272;52.426;17.100;2023-05-31T20:01:49;8.55;;;1.88;;
24090;SDS011;12272;52.426;17.100;2023-05-31T20:06:52;4.40;;;1.70;;
24090;SDS011;12272;52.426;17.100;2023-05-31T20:11:54;3.58;;;2.13;;
24090;SDS011;12272;52.426;17.100;2023-05-31T20:16:57;3.88;;;2.03;;
24090;SDS011;12272;52.426;17.100;2023-05-31T20:22:02;2.20;;;2.00;;
24090;SDS011;12272;52.426;17.100;2023-05-31T20:27:05;4.03;;;2.33;;
24090;SDS011;12272;52.426;17.100;2023-05-31T20:32:08;4.80;;;2.33;;
24090;SDS011;12272;52.426;17.100;2023-05-31T20:37:11;10.35;;;4.15;;
24090;SDS011;12272;52.426;17.100;2023-05-31T20:42:13;4.45;;;1.95;;
24090;SDS011;12272;52.426;17.100;2023-05-31T20:47:16;8.40;;;3.83;;
24090;SDS011;12272;52.426;17.100;2023-05-31T20:52:19;5.55;;;2.15;;
24090;SDS011;12272;52.426;17.100;2023-05-31T20:57:21;11.35;;;2.90;;
24090;SDS011;12272;52.426;17.100;2023-05-31T21:02:24;12.05;;;3.40;;
24090;SDS011;12272;52.426;17.100;2023-05-31T21:07:27;10.95;;;3.88;;
24090;SDS011;12272;52.426;17.100;2023-05-31T21:12:29;14.00;;;3.67;;
24090;SDS011;12272;52.426;17.100;2023-05-31T21:17:32;11.25;;;3.97;;
24090;SDS011;12272;52.426;17.100;2023-05-31T21:22:35;26.10;;;4.50;;
24090;SDS011;12272;52.426;17.100;2023-05-31T21:27:38;13.07;;;3.05;;
24090;SDS011;12272;52.426;17.100;2023-05-31T21:32:40;8.27;;;2.53;;
24090;SDS011;12272;52.426;17.100;2023-05-31T21:37:43;14.07;;;3.63;;
24090;SDS011;12272;52.426;17.100;2023-05-31T21:42:46;4.28;;;2.90;;
24090;SDS011;12272;52.426;17.100;2023-05-31T21:47:48;15.52;;;3.70;;
24090;SDS011;12272;52.426;17.100;2023-05-31T21:52:51;16.55;;;3.78;;
24090;SDS011;12272;52.426;17.100;2023-05-31T21:57:54;10.02;;;3.17;;
24090;SDS011;12272;52.426;17.100;2023-05-31T22:02:56;10.75;;;3.75;;
24090;SDS011;12272;52.426;17.100;2023-05-31T22:07:59;11.98;;;3.47;;
24090;SDS011;12272;52.426;17.100;2023-05-31T22:13:01;12.65;;;3.85;;
24090;SDS011;12272;52.426;17.100;2023-05-31T22:18:05;9.60;;;4.05;;
24090;SDS011;12272;52.426;17.100;2023-05-31T22:23:15;6.82;;;3.58;;
24090;SDS011;12272;52.426;17.100;2023-05-31T22:28:18;6.18;;;3.15;;
24090;SDS011;12272;52.426;17.100;2023-05-31T22:33:21;11.18;;;3.65;;
24090;SDS011;12272;52.426;17.100;2023-05-31T22:38:24;6.30;;;3.03;;
24090;SDS011;12272;52.426;17.100;2023-05-31T22:43:26;8.57;;;3.60;;
24090;SDS011;12272;52.426;17.100;2023-05-31T22:48:29;6.60;;;3.10;;
24090;SDS011;12272;52.426;17.100;2023-05-31T22:53:32;7.68;;;2.90;;
24090;SDS011;12272;52.426;17.100;2023-05-31T22:58:35;10.52;;;3.22;;
24090;SDS011;12272;52.426;17.100;2023-05-31T23:03:37;9.30;;;3.80;;
24090;SDS011;12272;52.426;17.100;2023-05-31T23:08:40;16.27;;;4.18;;
24090;SDS011;12272;52.426;17.100;2023-05-31T23:13:45;6.72;;;4.00;;
24090;SDS011;12272;52.426;17.100;2023-05-31T23:18:48;8.02;;;3.90;;
24090;SDS011;12272;52.426;17.100;2023-05-31T23:23:54;11.07;;;3.65;;
24090;SDS011;12272;52.426;17.100;2023-05-31T23:28:57;13.50;;;4.95;;
24090;SDS011;12272;52.426;17.100;2023-05-31T23:34:00;10.52;;;3.78;;
24090;SDS011;12272;52.426;17.100;2023-05-31T23:39:02;7.85;;;3.88;;
24090;SDS011;12272;52.426;17.100;2023-05-31T23:44:05;7.75;;;3.38;;
24090;SDS011;12272;52.426;17.100;2023-05-31T23:49:07;25.90;;;5.68;;
24090;SDS011;12272;52.426;17.100;2023-05-31T23:54:11;11.10;;;3.97;;
24090;SDS011;12272;52.426;17.100;2023-05-31T23:59:13;13.15;;;4.30;;
